sensor_id;sensor_type;location;lat;lon;timestamp;pressure;altitude;pressure_sealevel;temperature;humidity
15529;BME280;7866;52.280;9.500;2023-03-04T00:02:21;101017.47;;;4.55;78.63
15529;BME280;7866;52.280;9.500;2023-03-04T00:07:22;101021.81;;;4.56;78.44
15529;BME280;7866;52.280;9.500;2023-03-04T00:12:24;101024.97;;;4.61;78.19
15529;BME280;7866;52.280;9.500;2023-03-04T00:17:27;101015.09;;;4.63;77.98
15529;BME280;7866;52.280;9.500;2023-03-04T00:22:31;101019.31;;;4.66;77.58
15529;BME280;7866;52.280;9.500;2023-03-04T00:27:32;101013.16;;;4.65;76.96
15529;BME280;7866;52.280;9.500;2023-03-04T00:32:35;101014.84;;;4.66;78.20
15529;BME280;7866;52.280;9.500;2023-03-04T00:37:37;101017.28;;;4.69;77.37
15529;BME280;7866;52.280;9.500;2023-03-04T00:42:39;101016.91;;;4.74;76.90
15529;BME280;7866;52.280;9.500;2023-03-04T00:47:42;101016.22;;;4.72;77.21
15529;BME280;7866;52.280;9.500;2023-03-04T00:52:43;101006.44;;;4.73;78.02
15529;BME280;7866;52.280;9.500;2023-03-04T00:57:45;101004.63;;;4.73;78.43
15529;BME280;7866;52.280;9.500;2023-03-04T01:02:48;101004.00;;;4.69;77.51
15529;BME280;7866;52.280;9.500;2023-03-04T01:07:50;100996.53;;;4.75;77.71
15529;BME280;7866;52.280;9.500;2023-03-04T01:12:51;100993.78;;;4.76;77.58
15529;BME280;7866;52.280;9.500;2023-03-04T01:17:55;100986.66;;;4.77;77.28
15529;BME280;7866;52.280;9.500;2023-03-04T01:22:56;100991.97;;;4.77;77.62
15529;BME280;7866;52.280;9.500;2023-03-04T01:27:58;100990.44;;;4.85;77.82
15529;BME280;7866;52.280;9.500;2023-03-04T01:33:01;100979.72;;;4.87;77.00
15529;BME280;7866;52.280;9.500;2023-03-04T01:38:03;100968.34;;;4.85;77.49
15529;BME280;7866;52.280;9.500;2023-03-04T01:43:04;100961.38;;;4.84;78.42
15529;BME280;7866;52.280;9.500;2023-03-04T01:48:08;100950.28;;;4.90;78.13
15529;BME280;7866;52.280;9.500;2023-03-04T01:53:17;100941.25;;;4.92;77.63
15529;BME280;7866;52.280;9.500;2023-03-04T01:58:20;100936.41;;;4.98;77.44
15529;BME280;7866;52.280;9.500;2023-03-04T02:03:24;100930.50;;;4.94;77.98
15529;BME280;7866;52.280;9.500;2023-03-04T02:08:26;100917.00;;;4.97;78.13
15529;BME280;7866;52.280;9.500;2023-03-04T02:13:28;100914.94;;;5.01;77.43
15529;BME280;7866;52.280;9.500;2023-03-04T02:18:31;100909.88;;;4.98;77.61
15529;BME280;7866;52.280;9.500;2023-03-04T02:23:38;100904.69;;;4.96;78.02
15529;BME280;7866;52.280;9.500;2023-03-04T02:28:47;100902.66;;;5.00;77.99
15529;BME280;7866;52.280;9.500;2023-03-04T02:33:49;100894.31;;;5.04;77.68
15529;BME280;7866;52.280;9.500;2023-03-04T02:38:52;100900.47;;;5.05;77.41
15529;BME280;7866;52.280;9.500;2023-03-04T02:43:55;100902.06;;;5.07;78.11
15529;BME280;7866;52.280;9.500;2023-03-04T02:48:57;100900.47;;;5.05;78.11
15529;BME280;7866;52.280;9.500;2023-03-04T02:53:59;100898.44;;;5.08;78.26
15529;BME280;7866;52.280;9.500;2023-03-04T02:59:02;100898.19;;;5.11;78.79
15529;BME280;7866;52.280;9.500;2023-03-04T03:04:03;100893.72;;;5.12;77.87
15529;BME280;7866;52.280;9.500;2023-03-04T03:09:06;100891.44;;;5.07;78.85
15529;BME280;7866;52.280;9.500;2023-03-04T03:14:09;100885.28;;;5.07;78.38
15529;BME280;7866;52.280;9.500;2023-03-04T03:19:11;100883.19;;;5.10;78.34
15529;BME280;7866;52.280;9.500;2023-03-04T03:24:12;100878.03;;;5.09;78.56
15529;BME280;7866;52.280;9.500;2023-03-04T03:29:15;100878.75;;;5.11;79.34
15529;BME280;7866;52.280;9.500;2023-03-04T03:34:17;100877.41;;;5.05;79.47
15529;BME280;7866;52.280;9.500;2023-03-04T03:39:19;100875.50;;;5.07;78.58
15529;BME280;7866;52.280;9.500;2023-03-04T03:44:22;100874.91;;;5.04;79.39
15529;BME280;7866;52.280;9.500;2023-03-04T03:49:23;100875.59;;;5.06;79.31
15529;BME280;7866;52.280;9.500;2023-03-04T03:54:25;100872.94;;;5.06;79.24
15529;BME280;7866;52.280;9.500;2023-03-04T03:59:28;100866.94;;;5.04;80.46
15529;BME280;7866;52.280;9.500;2023-03-04T04:04:29;100859.34;;;4.99;80.50
15529;BME280;7866;52.280;9.500;2023-03-04T04:09:31;100865.13;;;5.04;80.69
15529;BME280;7866;52.280;9.500;2023-03-04T04:14:34;100856.41;;;5.02;80.81
15529;BME280;7866;52.280;9.500;2023-03-04T04:19:36;100857.53;;;5.00;80.24
15529;BME280;7866;52.280;9.500;2023-03-04T04:24:39;100860.66;;;4.93;81.25
15529;BME280;7866;52.280;9.500;2023-03-04T04:29:43;100857.00;;;4.94;82.31
15529;BME280;7866;52.280;9.500;2023-03-04T04:34:45;100865.25;;;4.91;82.29
15529;BME280;7866;52.280;9.500;2023-03-04T04:39:46;100849.56;;;4.88;83.06
15529;BME280;7866;52.280;9.500;2023-03-04T04:44:50;100849.56;;;4.88;82.63
15529;BME280;7866;52.280;9.500;2023-03-04T04:49:51;100832.88;;;4.86;83.45
15529;BME280;7866;52.280;9.500;2023-03-04T04:54:53;100830.59;;;4.82;84.18
15529;BME280;7866;52.280;9.500;2023-03-04T04:59:56;100828.19;;;4.79;84.81
15529;BME280;7866;52.280;9.500;2023-03-04T05:04:58;100829.16;;;4.78;84.01
15529;BME280;7866;52.280;9.500;2023-03-04T05:09:59;100833.84;;;4.74;85.22
15529;BME280;7866;52.280;9.500;2023-03-04T05:15:03;100833.38;;;4.69;84.71
15529;BME280;7866;52.280;9.500;2023-03-04T05:20:05;100824.69;;;4.67;86.09
15529;BME280;7866;52.280;9.500;2023-03-04T05:25:08;100821.78;;;4.70;85.60
15529;BME280;7866;52.280;9.500;2023-03-04T05:30:12;100811.06;;;4.72;85.28
15529;BME280;7866;52.280;9.500;2023-03-04T05:35:14;100813.00;;;4.69;85.16
15529;BME280;7866;52.280;9.500;2023-03-04T05:40:16;100815.16;;;4.64;86.01
15529;BME280;7866;52.280;9.500;2023-03-04T05:45:19;100814.56;;;4.61;86.71
15529;BME280;7866;52.280;9.500;2023-03-04T05:50:21;100812.66;;;4.63;85.48
15529;BME280;7866;52.280;9.500;2023-03-04T05:55:23;100816.50;;;4.59;86.23
15529;BME280;7866;52.280;9.500;2023-03-04T06:00:28;100818.53;;;4.55;86.53
15529;BME280;7866;52.280;9.500;2023-03-04T06:05:30;100812.63;;;4.52;86.79
15529;BME280;7866;52.280;9.500;2023-03-04T06:10:31;100824.06;;;4.52;87.45
15529;BME280;7866;52.280;9.500;2023-03-04T06:15:34;100807.94;;;4.55;87.81
15529;BME280;7866;52.280;9.500;2023-03-04T06:20:37;100815.88;;;4.55;87.54
15529;BME280;7866;52.280;9.500;2023-03-04T06:25:39;100818.78;;;4.63;87.56
15529;BME280;7866;52.280;9.500;2023-03-04T06:30:42;100818.53;;;4.66;87.75
15529;BME280;7866;52.280;9.500;2023-03-04T06:35:44;100828.44;;;4.64;88.06
15529;BME280;7866;52.280;9.500;2023-03-04T06:40:45;100827.09;;;4.70;88.79
15529;BME280;7866;52.280;9.500;2023-03-04T06:45:48;100824.59;;;4.80;88.14
15529;BME280;7866;52.280;9.500;2023-03-04T06:50:50;100818.06;;;4.84;88.28
15529;BME280;7866;52.280;9.500;2023-03-04T06:55:51;100816.03;;;4.87;88.36
15529;BME280;7866;52.280;9.500;2023-03-04T07:00:54;100835.91;;;4.93;88.27
15529;BME280;7866;52.280;9.500;2023-03-04T07:05:56;100824.94;;;5.09;87.74
15529;BME280;7866;52.280;9.500;2023-03-04T07:10:58;100818.78;;;5.19;88.20
15529;BME280;7866;52.280;9.500;2023-03-04T07:16:01;100818.03;;;5.06;88.84
15529;BME280;7866;52.280;9.500;2023-03-04T07:21:03;100833.75;;;5.09;89.81
15529;BME280;7866;52.280;9.500;2023-03-04T07:26:05;100830.34;;;5.18;89.70
15529;BME280;7866;52.280;9.500;2023-03-04T07:31:18;100827.34;;;5.23;89.00
15529;BME280;7866;52.280;9.500;2023-03-04T07:36:20;100835.03;;;5.37;86.85
15529;BME280;7866;52.280;9.500;2023-03-04T07:41:24;100826.47;;;5.34;88.55
15529;BME280;7866;52.280;9.500;2023-03-04T07:46:27;100836.63;;;5.17;90.46
15529;BME280;7866;52.280;9.500;2023-03-04T07:51:29;100842.28;;;5.35;90.72
15529;BME280;7866;52.280;9.500;2023-03-04T07:56:33;100839.34;;;5.50;91.18
15529;BME280;7866;52.280;9.500;2023-03-04T08:01:36;100825.13;;;5.51;90.36
15529;BME280;7866;52.280;9.500;2023-03-04T08:06:39;100825.00;;;5.41;89.27
15529;BME280;7866;52.280;9.500;2023-03-04T08:11:42;100824.25;;;5.50;90.67
15529;BME280;7866;52.280;9.500;2023-03-04T08:16:45;100824.59;;;5.57;90.98
15529;BME280;7866;52.280;9.500;2023-03-04T08:21:46;100814.16;;;5.76;89.36
15529;BME280;7866;52.280;9.500;2023-03-04T08:26:49;100819.94;;;5.92;88.51
15529;BME280;7866;52.280;9.500;2023-03-04T08:31:53;100813.63;;;5.82;88.69
15529;BME280;7866;52.280;9.500;2023-03-04T08:36:55;100809.81;;;5.75;88.45
15529;BME280;7866;52.280;9.500;2023-03-04T08:41:57;100814.31;;;5.75;90.05
15529;BME280;7866;52.280;9.500;2023-03-04T08:47:00;100819.44;;;5.87;89.98
15529;BME280;7866;52.280;9.500;2023-03-04T08:52:01;100827.03;;;6.03;89.43
15529;BME280;7866;52.280;9.500;2023-03-04T08:57:03;100822.28;;;6.07;89.65
15529;BME280;7866;52.280;9.500;2023-03-04T09:02:08;100827.28;;;6.21;88.93
15529;BME280;7866;52.280;9.500;2023-03-04T09:07:10;100829.38;;;6.38;88.75
15529;BME280;7866;52.280;9.500;2023-03-04T09:12:13;100829.28;;;6.08;88.91
15529;BME280;7866;52.280;9.500;2023-03-04T09:17:16;100828.09;;;6.01;91.02
15529;BME280;7866;52.280;9.500;2023-03-04T09:22:18;100825.59;;;5.88;92.53
15529;BME280;7866;52.280;9.500;2023-03-04T09:27:20;100829.25;;;5.87;92.58
15529;BME280;7866;52.280;9.500;2023-03-04T09:32:23;100869.94;;;5.87;92.40
15529;BME280;7866;52.280;9.500;2023-03-04T09:37:24;100853.34;;;6.06;91.84
15529;BME280;7866;52.280;9.500;2023-03-04T09:42:30;100858.50;;;6.19;90.49
15529;BME280;7866;52.280;9.500;2023-03-04T09:47:36;100854.91;;;6.30;89.24
15529;BME280;7866;52.280;9.500;2023-03-04T09:52:48;100851.69;;;6.47;87.46
15529;BME280;7866;52.280;9.500;2023-03-04T09:57:58;100845.19;;;6.61;85.31
15529;BME280;7866;52.280;9.500;2023-03-04T10:03:12;100835.22;;;6.84;83.25
15529;BME280;7866;52.280;9.500;2023-03-04T10:08:26;100843.38;;;6.61;81.36
15529;BME280;7866;52.280;9.500;2023-03-04T10:13:34;100837.00;;;6.74;80.29
15529;BME280;7866;52.280;9.500;2023-03-04T10:18:43;100839.03;;;6.60;79.32
15529;BME280;7866;52.280;9.500;2023-03-04T10:23:47;100835.84;;;6.66;77.67
15529;BME280;7866;52.280;9.500;2023-03-04T10:28:50;100834.13;;;6.65;77.79
15529;BME280;7866;52.280;9.500;2023-03-04T10:33:53;100834.13;;;6.65;77.31
15529;BME280;7866;52.280;9.500;2023-03-04T10:38:57;100827.41;;;6.61;77.19
15529;BME280;7866;52.280;9.500;2023-03-04T10:44:01;100830.66;;;6.44;76.86
15529;BME280;7866;52.280;9.500;2023-03-04T10:49:04;100826.78;;;6.48;77.34
15529;BME280;7866;52.280;9.500;2023-03-04T10:54:09;100825.53;;;6.52;78.13
15529;BME280;7866;52.280;9.500;2023-03-04T10:59:34;100824.56;;;6.53;79.14
15529;BME280;7866;52.280;9.500;2023-03-04T11:04:40;100823.69;;;6.74;79.21
15529;BME280;7866;52.280;9.500;2023-03-04T11:09:43;100821.69;;;6.97;78.97
15529;BME280;7866;52.280;9.500;2023-03-04T11:14:46;100819.69;;;6.89;78.89
15529;BME280;7866;52.280;9.500;2023-03-04T11:19:54;100817.38;;;7.05;78.50
15529;BME280;7866;52.280;9.500;2023-03-04T11:25:00;100815.66;;;7.35;77.61
15529;BME280;7866;52.280;9.500;2023-03-04T11:30:18;100810.19;;;6.96;78.95
15529;BME280;7866;52.280;9.500;2023-03-04T11:35:27;100817.75;;;6.91;80.79
15529;BME280;7866;52.280;9.500;2023-03-04T11:40:35;100829.56;;;6.47;83.11
15529;BME280;7866;52.280;9.500;2023-03-04T11:45:56;100811.06;;;6.45;85.43
15529;BME280;7866;52.280;9.500;2023-03-04T11:51:09;100801.59;;;6.83;83.90
15529;BME280;7866;52.280;9.500;2023-03-04T11:56:30;100790.63;;;7.16;81.24
15529;BME280;7866;52.280;9.500;2023-03-04T12:01:38;100783.06;;;7.22;79.41
15529;BME280;7866;52.280;9.500;2023-03-04T12:06:54;100779.31;;;7.34;78.61
15529;BME280;7866;52.280;9.500;2023-03-04T12:12:10;100768.53;;;7.45;77.49
15529;BME280;7866;52.280;9.500;2023-03-04T12:17:37;100772.50;;;7.51;76.35
15529;BME280;7866;52.280;9.500;2023-03-04T12:22:50;100773.03;;;7.45;76.70
15529;BME280;7866;52.280;9.500;2023-03-04T12:27:59;100758.00;;;7.34;76.93
15529;BME280;7866;52.280;9.500;2023-03-04T12:33:10;100765.03;;;6.85;78.97
15529;BME280;7866;52.280;9.500;2023-03-04T12:38:24;100760.66;;;7.14;79.83
15529;BME280;7866;52.280;9.500;2023-03-04T12:43:38;100753.34;;;7.07;79.29
15529;BME280;7866;52.280;9.500;2023-03-04T12:48:49;100733.72;;;7.08;77.45
15529;BME280;7866;52.280;9.500;2023-03-04T12:54:04;100736.00;;;7.22;76.72
15529;BME280;7866;52.280;9.500;2023-03-04T12:59:13;100742.16;;;7.23;74.39
15529;BME280;7866;52.280;9.500;2023-03-04T13:04:21;100737.78;;;7.22;71.87
15529;BME280;7866;52.280;9.500;2023-03-04T13:09:27;100732.19;;;7.25;71.97
15529;BME280;7866;52.280;9.500;2023-03-04T13:14:32;100738.34;;;7.25;68.19
15529;BME280;7866;52.280;9.500;2023-03-04T13:19:49;100725.78;;;7.66;69.80
15529;BME280;7866;52.280;9.500;2023-03-04T13:24:53;100738.38;;;7.93;70.53
15529;BME280;7866;52.280;9.500;2023-03-04T13:29:55;100747.50;;;7.52;71.88
15529;BME280;7866;52.280;9.500;2023-03-04T13:34:57;100754.59;;;7.12;72.12
15529;BME280;7866;52.280;9.500;2023-03-04T13:40:28;100744.97;;;6.81;73.48
15529;BME280;7866;52.280;9.500;2023-03-04T13:45:34;100748.88;;;6.46;74.56
15529;BME280;7866;52.280;9.500;2023-03-04T13:50:39;100751.09;;;6.41;75.28
15529;BME280;7866;52.280;9.500;2023-03-04T13:55:42;100745.34;;;6.36;73.72
15529;BME280;7866;52.280;9.500;2023-03-04T14:00:50;100741.13;;;6.64;73.26
15529;BME280;7866;52.280;9.500;2023-03-04T14:06:15;100725.78;;;6.77;73.28
15529;BME280;7866;52.280;9.500;2023-03-04T14:11:26;100731.41;;;6.84;72.19
15529;BME280;7866;52.280;9.500;2023-03-04T14:16:31;100730.69;;;6.82;73.16
15529;BME280;7866;52.280;9.500;2023-03-04T14:21:36;100727.13;;;7.02;72.24
15529;BME280;7866;52.280;9.500;2023-03-04T14:26:38;100726.81;;;7.05;72.23
15529;BME280;7866;52.280;9.500;2023-03-04T14:31:40;100721.34;;;6.87;72.74
15529;BME280;7866;52.280;9.500;2023-03-04T14:36:43;100719.09;;;6.83;71.39
15529;BME280;7866;52.280;9.500;2023-03-04T14:41:46;100707.88;;;6.89;72.84
15529;BME280;7866;52.280;9.500;2023-03-04T14:46:52;100711.00;;;7.13;71.37
15529;BME280;7866;52.280;9.500;2023-03-04T14:51:55;100718.78;;;6.76;72.28
15529;BME280;7866;52.280;9.500;2023-03-04T14:57:00;100707.84;;;6.39;75.36
15529;BME280;7866;52.280;9.500;2023-03-04T15:02:25;100729.03;;;6.20;76.95
15529;BME280;7866;52.280;9.500;2023-03-04T15:07:33;100713.00;;;6.10;78.44
15529;BME280;7866;52.280;9.500;2023-03-04T15:12:36;100704.56;;;5.84;78.22
15529;BME280;7866;52.280;9.500;2023-03-04T15:17:39;100696.34;;;5.87;77.57
15529;BME280;7866;52.280;9.500;2023-03-04T15:22:57;100694.19;;;5.81;75.35
15529;BME280;7866;52.280;9.500;2023-03-04T15:28:01;100709.34;;;5.90;75.79
15529;BME280;7866;52.280;9.500;2023-03-04T15:33:07;100705.47;;;5.94;75.08
15529;BME280;7866;52.280;9.500;2023-03-04T15:38:11;100699.59;;;5.90;75.24
15529;BME280;7866;52.280;9.500;2023-03-04T15:43:16;100709.72;;;5.97;74.90
15529;BME280;7866;52.280;9.500;2023-03-04T15:48:18;100727.69;;;5.72;75.91
15529;BME280;7866;52.280;9.500;2023-03-04T15:53:26;100726.59;;;5.42;76.70
15529;BME280;7866;52.280;9.500;2023-03-04T15:58:31;100719.38;;;5.44;76.75
15529;BME280;7866;52.280;9.500;2023-03-04T16:03:33;100703.84;;;5.29;75.44
15529;BME280;7866;52.280;9.500;2023-03-04T16:08:34;100713.38;;;5.31;73.78
15529;BME280;7866;52.280;9.500;2023-03-04T16:13:37;100718.53;;;5.44;73.08
15529;BME280;7866;52.280;9.500;2023-03-04T16:18:40;100714.28;;;5.41;72.14
15529;BME280;7866;52.280;9.500;2023-03-04T16:23:43;100709.75;;;5.32;72.57
15529;BME280;7866;52.280;9.500;2023-03-04T16:28:47;100720.00;;;5.37;72.36
15529;BME280;7866;52.280;9.500;2023-03-04T16:33:49;100717.34;;;5.37;71.88
15529;BME280;7866;52.280;9.500;2023-03-04T16:38:53;100707.47;;;5.28;71.64
15529;BME280;7866;52.280;9.500;2023-03-04T16:43:59;100712.03;;;5.37;70.49
15529;BME280;7866;52.280;9.500;2023-03-04T16:49:00;100701.78;;;5.32;71.87
15529;BME280;7866;52.280;9.500;2023-03-04T16:54:02;100708.78;;;5.33;71.95
15529;BME280;7866;52.280;9.500;2023-03-04T16:59:05;100716.91;;;5.21;72.56
15529;BME280;7866;52.280;9.500;2023-03-04T17:04:07;100713.06;;;5.13;73.19
15529;BME280;7866;52.280;9.500;2023-03-04T17:09:08;100709.69;;;5.11;73.01
15529;BME280;7866;52.280;9.500;2023-03-04T17:14:11;100703.97;;;4.95;72.50
15529;BME280;7866;52.280;9.500;2023-03-04T17:19:13;100705.41;;;4.99;72.35
15529;BME280;7866;52.280;9.500;2023-03-04T17:24:14;100719.88;;;4.84;71.62
15529;BME280;7866;52.280;9.500;2023-03-04T17:29:18;100727.63;;;4.87;72.36
15529;BME280;7866;52.280;9.500;2023-03-04T17:34:19;100719.16;;;4.93;72.73
15529;BME280;7866;52.280;9.500;2023-03-04T17:39:21;100721.22;;;4.78;73.56
15529;BME280;7866;52.280;9.500;2023-03-04T17:44:24;100719.06;;;4.72;74.50
15529;BME280;7866;52.280;9.500;2023-03-04T17:49:26;100720.38;;;4.66;74.38
15529;BME280;7866;52.280;9.500;2023-03-04T17:54:28;100727.03;;;4.72;74.18
15529;BME280;7866;52.280;9.500;2023-03-04T17:59:31;100727.50;;;4.66;73.78
15529;BME280;7866;52.280;9.500;2023-03-04T18:04:33;100726.66;;;4.65;74.69
15529;BME280;7866;52.280;9.500;2023-03-04T18:09:35;100724.47;;;4.70;74.49
15529;BME280;7866;52.280;9.500;2023-03-04T18:14:38;100723.53;;;4.72;74.91
15529;BME280;7866;52.280;9.500;2023-03-04T18:19:39;100727.13;;;4.70;74.44
15529;BME280;7866;52.280;9.500;2023-03-04T18:24:41;100724.59;;;4.69;74.44
15529;BME280;7866;52.280;9.500;2023-03-04T18:29:44;100718.09;;;4.73;75.72
15529;BME280;7866;52.280;9.500;2023-03-04T18:34:45;100715.06;;;4.66;75.12
15529;BME280;7866;52.280;9.500;2023-03-04T18:39:47;100715.94;;;4.67;75.45
15529;BME280;7866;52.280;9.500;2023-03-04T18:44:50;100723.28;;;4.63;75.15
15529;BME280;7866;52.280;9.500;2023-03-04T18:49:52;100719.06;;;4.61;75.08
15529;BME280;7866;52.280;9.500;2023-03-04T18:54:53;100728.22;;;4.57;75.66
15529;BME280;7866;52.280;9.500;2023-03-04T18:59:57;100733.31;;;4.60;74.98
15529;BME280;7866;52.280;9.500;2023-03-04T19:05:02;100723.28;;;4.52;75.91
15529;BME280;7866;52.280;9.500;2023-03-04T19:10:05;100726.91;;;4.51;76.84
15529;BME280;7866;52.280;9.500;2023-03-04T19:15:10;100726.16;;;4.27;78.11
15529;BME280;7866;52.280;9.500;2023-03-04T19:20:13;100729.16;;;4.11;79.80
15529;BME280;7866;52.280;9.500;2023-03-04T19:25:15;100727.53;;;3.86;80.63
15529;BME280;7866;52.280;9.500;2023-03-04T19:30:18;100732.78;;;3.63;82.17
15529;BME280;7866;52.280;9.500;2023-03-04T19:35:20;100741.84;;;3.72;83.70
15529;BME280;7866;52.280;9.500;2023-03-04T19:40:22;100739.53;;;3.79;84.04
15529;BME280;7866;52.280;9.500;2023-03-04T19:45:28;100739.53;;;3.79;83.51
15529;BME280;7866;52.280;9.500;2023-03-04T19:50:30;100734.88;;;3.82;83.04
15529;BME280;7866;52.280;9.500;2023-03-04T19:55:35;100734.78;;;3.84;84.03
15529;BME280;7866;52.280;9.500;2023-03-04T20:00:38;100734.50;;;3.76;83.82
15529;BME280;7866;52.280;9.500;2023-03-04T20:05:40;100735.84;;;3.81;83.19
15529;BME280;7866;52.280;9.500;2023-03-04T20:10:41;100738.84;;;3.77;83.04
15529;BME280;7866;52.280;9.500;2023-03-04T20:15:44;100741.97;;;3.82;82.40
15529;BME280;7866;52.280;9.500;2023-03-04T20:20:46;100744.97;;;3.77;83.04
15529;BME280;7866;52.280;9.500;2023-03-04T20:25:51;100737.63;;;3.81;82.92
15529;BME280;7866;52.280;9.500;2023-03-04T20:31:10;100744.84;;;3.67;83.86
15529;BME280;7866;52.280;9.500;2023-03-04T20:36:12;100743.97;;;3.43;85.15
15529;BME280;7866;52.280;9.500;2023-03-04T20:41:15;100749.59;;;3.51;84.95
15529;BME280;7866;52.280;9.500;2023-03-04T20:46:25;100737.19;;;3.52;86.01
15529;BME280;7866;52.280;9.500;2023-03-04T20:51:28;100741.13;;;3.46;85.83
15529;BME280;7866;52.280;9.500;2023-03-04T20:56:30;100733.72;;;3.62;85.45
15529;BME280;7866;52.280;9.500;2023-03-04T21:01:34;100737.09;;;3.64;84.78
15529;BME280;7866;52.280;9.500;2023-03-04T21:06:36;100715.78;;;3.66;84.97
15529;BME280;7866;52.280;9.500;2023-03-04T21:11:38;100721.47;;;3.73;83.39
15529;BME280;7866;52.280;9.500;2023-03-04T21:16:41;100722.78;;;3.67;81.95
15529;BME280;7866;52.280;9.500;2023-03-04T21:21:43;100723.16;;;3.74;82.47
15529;BME280;7866;52.280;9.500;2023-03-04T21:26:45;100717.88;;;3.74;81.61
15529;BME280;7866;52.280;9.500;2023-03-04T21:31:51;100726.78;;;3.73;81.96
15529;BME280;7866;52.280;9.500;2023-03-04T21:36:53;100713.16;;;3.66;81.56
15529;BME280;7866;52.280;9.500;2023-03-04T21:41:56;100722.41;;;3.60;82.11
15529;BME280;7866;52.280;9.500;2023-03-04T21:47:00;100708.94;;;3.63;83.02
15529;BME280;7866;52.280;9.500;2023-03-04T21:52:01;100713.72;;;3.58;83.61
15529;BME280;7866;52.280;9.500;2023-03-04T21:57:03;100690.00;;;3.57;83.38
15529;BME280;7866;52.280;9.500;2023-03-04T22:02:13;100703.44;;;3.42;84.09
15529;BME280;7866;52.280;9.500;2023-03-04T22:07:15;100699.59;;;3.46;84.31
15529;BME280;7866;52.280;9.500;2023-03-04T22:12:16;100699.38;;;3.50;84.51
15529;BME280;7866;52.280;9.500;2023-03-04T22:17:19;100682.66;;;3.49;83.79
15529;BME280;7866;52.280;9.500;2023-03-04T22:22:21;100680.75;;;3.51;83.62
15529;BME280;7866;52.280;9.500;2023-03-04T22:27:23;100685.28;;;3.49;83.64
15529;BME280;7866;52.280;9.500;2023-03-04T22:32:26;100682.66;;;3.49;84.26
15529;BME280;7866;52.280;9.500;2023-03-04T22:37:27;100680.75;;;3.51;84.65
15529;BME280;7866;52.280;9.500;2023-03-04T22:42:29;100679.72;;;3.41;84.17
15529;BME280;7866;52.280;9.500;2023-03-04T22:47:32;100678.03;;;3.40;85.00
15529;BME280;7866;52.280;9.500;2023-03-04T22:52:34;100690.31;;;3.41;84.45
15529;BME280;7866;52.280;9.500;2023-03-04T22:57:35;100681.41;;;3.42;84.69
15529;BME280;7866;52.280;9.500;2023-03-04T23:02:38;100670.38;;;3.48;84.43
15529;BME280;7866;52.280;9.500;2023-03-04T23:07:40;100672.75;;;3.40;83.80
15529;BME280;7866;52.280;9.500;2023-03-04T23:12:42;100665.53;;;3.42;83.75
15529;BME280;7866;52.280;9.500;2023-03-04T23:17:45;100669.84;;;3.32;84.54
15529;BME280;7866;52.280;9.500;2023-03-04T23:22:47;100663.09;;;3.39;84.84
15529;BME280;7866;52.280;9.500;2023-03-04T23:27:49;100656.47;;;3.33;85.03
15529;BME280;7866;52.280;9.500;2023-03-04T23:32:52;100653.97;;;3.32;85.62
15529;BME280;7866;52.280;9.500;2023-03-04T23:37:54;100652.50;;;3.28;85.77
15529;BME280;7866;52.280;9.500;2023-03-04T23:42:55;100649.50;;;3.32;85.60
15529;BME280;7866;52.280;9.500;2023-03-04T23:47:58;100650.47;;;3.31;85.85
15529;BME280;7866;52.280;9.500;2023-03-04T23:53:00;100647.34;;;3.37;85.04
15529;BME280;7866;52.280;9.500;2023-03-04T23:58:01;100648.41;;;3.35;84.96
